Time;durP1;ratioP1;P1;durP2;ratioP2;P2;SDS_P1;SDS_P2;PMS_P1;PMS_P2;Temp;Humidity;BMP_temperature;BMP_pressure;BME280_temperature;BME280_humidity;BME280_pressure;Samples;Min_cycle;Max_cycle;Signal;HPM_P1;HPM_P2
2023/08/26 00:00:57;;;;;;;11.30;9.57;;;;;;;30.94;36.42;100648.56;6094859;23;20366;-80
2023/08/26 00:03:24;;;;;;;17.45;9.52;;;;;;;30.86;34.43;100635.41;6104993;23;20604;-82
2023/08/26 00:05:57;;;;;;;15.13;9.13;;;;;;;30.86;33.88;100638.97;6107163;23;20089;-82
2023/08/26 00:08:24;;;;;;;11.80;9.65;;;;;;;31.06;35.05;100672.97;6109863;23;20048;-78
2023/08/26 00:10:53;;;;;;;11.85;9.07;;;;;;;30.96;34.00;100667.50;6083556;23;20029;-80
2023/08/26 00:13:24;;;;;;;11.85;10.20;;;;;;;31.04;34.60;100678.72;6082519;23;20056;-82
2023/08/26 00:15:56;;;;;;;11.65;9.30;;;;;;;31.06;35.99;100672.97;6099026;23;20125;-82
2023/08/26 00:18:23;;;;;;;13.07;10.07;;;;;;;30.87;35.33;100635.13;6099913;23;20036;-81
2023/08/26 00:20:51;;;;;;;11.63;9.32;;;;;;;31.02;37.16;100644.47;6082118;23;20025;-79
2023/08/26 00:23:23;;;;;;;12.68;9.40;;;;;;;30.78;36.58;100623.03;6143825;23;20024;-82
2023/08/26 00:25:49;;;;;;;;;;;;;;;31.15;37.66;100673.28;6111202;23;20025;-78
2023/08/26 00:28:20;;;;;;;12.27;9.90;;;;;;;31.06;35.80;100667.50;6122492;23;19920;-80
2023/08/26 00:30:59;;;;;;;14.85;10.27;;;;;;;31.02;34.15;100655.41;6151042;23;20025;-79
2023/08/26 00:33:26;;;;;;;11.30;9.63;;;;;;;31.05;33.97;100658.47;6121282;23;20021;-77
2023/08/26 00:35:57;;;;;;;11.63;9.20;;;;;;;31.11;35.53;100664.75;6095970;23;20028;-80
2023/08/26 00:38:25;;;;;;;11.55;9.95;;;;;;;31.12;37.50;100669.16;6107322;23;20406;-81
2023/08/26 00:40:58;;;;;;;11.75;8.65;;;;;;;30.98;39.32;100643.38;6073376;23;20540;-80
2023/08/26 00:43:28;;;;;;;13.63;8.63;;;;;;;30.99;37.60;100650.50;6080577;23;20053;-78
2023/08/26 00:45:55;;;;;;;12.55;10.20;;;;;;;31.13;34.30;100659.03;6096968;23;20508;-80
2023/08/26 00:48:22;;;;;;;13.02;9.90;;;;;;;31.08;34.40;100651.59;6107741;23;20103;-78
2023/08/26 00:50:56;;;;;;;12.93;9.80;;;;;;;31.03;33.69;100644.19;6081547;23;20060;-80
2023/08/26 00:53:30;;;;;;;16.42;9.73;;;;;;;31.05;35.15;100649.41;6090776;23;20088;-78
2023/08/26 00:56:02;;;;;;;11.95;10.00;;;;;;;31.02;38.19;100652.69;6125506;23;20122;-83
2023/08/26 00:58:30;;;;;;;17.42;10.32;;;;;;;30.92;34.48;100628.00;6092755;23;20339;-78
2023/08/26 01:00:57;;;;;;;13.95;9.70;;;;;;;31.09;34.38;100639.53;6065274;23;20100;-79
2023/08/26 01:03:29;;;;;;;11.98;9.55;;;;;;;31.05;34.62;100638.44;6120688;23;20104;-80
2023/08/26 01:06:00;;;;;;;10.70;9.60;;;;;;;30.97;35.95;100631.56;6098054;23;20394;-81
2023/08/26 01:08:27;;;;;;;13.60;9.95;;;;;;;30.97;35.77;100633.50;6100647;23;20259;-80
2023/08/26 01:11:16;;;;;;;11.35;9.90;;;;;;;30.94;33.64;100625.81;6099382;23;20487;-83
2023/08/26 01:13:49;;;;;;;11.68;10.00;;;;;;;30.94;34.52;100626.63;6115356;23;20396;-80
2023/08/26 01:16:22;;;;;;;12.52;9.98;;;;;;;30.71;35.81;100584.09;6103007;23;20082;-82
2023/08/26 01:18:49;;;;;;;11.30;9.65;;;;;;;30.85;39.05;100622.78;6095097;23;20025;-81
2023/08/26 01:21:19;;;;;;;12.57;10.70;;;;;;;30.74;36.59;100608.22;6098910;23;20107;-80
2023/08/26 01:23:52;;;;;;;13.70;9.57;;;;;;;30.67;37.17;100596.69;6086524;23;20272;-81
2023/08/26 01:26:20;;;;;;;16.42;10.70;;;;;;;30.79;38.31;100608.22;6085154;23;20017;-79
2023/08/26 01:28:47;;;;;;;11.88;9.98;;;;;;;30.65;37.47;100574.22;6108930;23;20071;-79
2023/08/26 01:31:18;;;;;;;15.98;11.13;;;;;;;30.82;35.55;100612.34;6101964;23;20021;-82
2023/08/26 01:33:59;;;;;;;15.25;10.30;;;;;;;30.85;41.04;100609.06;6103600;23;20621;-80
2023/08/26 01:36:31;;;;;;;10.98;9.73;;;;;;;30.79;40.37;100597.25;6148428;23;20080;-81
2023/08/26 01:38:58;;;;;;;15.50;10.50;;;;;;;30.84;42.07;100610.19;6098710;23;20028;-81
2023/08/26 01:41:31;;;;;;;11.95;9.07;;;;;;;30.81;41.54;100586.03;6125740;23;20104;-79
2023/08/26 01:44:02;;;;;;;10.45;9.35;;;;;;;30.25;40.66;100504.56;6093966;23;20504;-79
2023/08/26 01:46:37;;;;;;;13.32;11.00;;;;;;;30.83;37.91;100597.59;6112536;23;20096;-82
2023/08/26 01:49:04;;;;;;;13.70;9.90;;;;;;;30.71;42.85;100578.63;6076347;23;20481;-81
2023/08/26 01:51:31;;;;;;;15.75;10.95;;;;;;;30.55;38.09;100557.75;6108760;23;20025;-81
2023/08/26 01:53:58;;;;;;;15.05;10.57;;;;;;;30.76;37.65;100594.25;6121800;23;20040;-81
2023/08/26 01:56:25;;;;;;;12.20;10.65;;;;;;;30.75;36.39;100601.63;6108936;23;20522;-82
2023/08/26 01:58:52;;;;;;;12.73;10.75;;;;;;;30.52;35.85;100583.78;6125160;23;20338;-82
2023/08/26 02:01:22;;;;;;;12.95;11.38;;;;;;;30.57;35.47;100611.19;6101450;23;20037;-80
2023/08/26 02:03:52;;;;;;;13.18;11.57;;;;;;;30.50;35.33;100609.78;6139983;23;20214;-81
2023/08/26 02:06:19;;;;;;;14.60;11.60;;;;;;;30.13;37.10;100545.84;6162480;23;20017;-80
2023/08/26 02:08:46;;;;;;;14.25;11.13;;;;;;;30.42;37.01;100597.44;6112194;23;20431;-80
2023/08/26 02:11:13;;;;;;;13.75;10.65;;;;;;;30.43;38.94;100594.41;6102540;23;20021;-82
2023/08/26 02:13:41;;;;;;;17.10;9.30;;;;;;;30.48;42.53;100601.03;6106496;23;20037;-79
2023/08/26 02:16:11;;;;;;;15.52;12.35;;;;;;;30.34;39.82;100579.63;6127182;23;20039;-81
2023/08/26 02:18:38;;;;;;;14.93;12.90;;;;;;;30.26;36.62;100563.69;6120712;23;20028;-80
2023/08/26 02:21:05;;;;;;;19.65;13.50;;;;;;;30.28;36.26;100579.88;6118594;23;20498;-80
2023/08/26 02:23:32;;;;;;;15.88;13.35;;;;;;;30.04;36.90;100542.78;6104979;23;20448;-80
2023/08/26 02:25:59;;;;;;;19.00;13.60;;;;;;;30.39;36.89;100597.97;6136931;23;20016;-80
2023/08/26 02:28:34;;;;;;;14.57;13.07;;;;;;;30.30;37.82;100588.66;6080874;23;20376;-82
2023/08/26 02:31:02;;;;;;;17.15;14.32;;;;;;;30.33;39.94;100571.66;6097496;23;20021;-79
2023/08/26 02:33:30;;;;;;;14.57;12.32;;;;;;;30.50;39.92;100593.38;6090134;23;20323;-81
2023/08/26 02:35:57;;;;;;;19.75;14.82;;;;;;;30.48;38.15;100590.88;6107128;23;20024;-79
2023/08/26 02:38:31;;;;;;;19.90;16.67;;;;;;;30.10;35.54;100531.84;6086700;23;20241;-81
2023/08/26 02:41:02;;;;;;;20.45;16.45;;;;;;;30.43;35.59;100594.41;6106890;23;20363;-80
2023/08/26 02:43:29;;;;;;;22.65;17.95;;;;;;;30.35;34.32;100578.53;6092638;23;20079;-80
2023/08/26 02:45:58;;;;;;;17.17;12.27;;;;;;;30.36;38.95;100577.41;6119119;23;20032;-79
2023/08/26 02:48:26;;;;;;;21.05;15.23;;;;;;;30.52;38.39;100585.69;6097812;23;20560;-82
2023/08/26 02:50:57;;;;;;;24.42;17.52;;;;;;;30.44;35.21;100578.84;6080887;23;20020;-80
2023/08/26 02:53:25;;;;;;;;;;;;;;;30.42;33.90;100592.78;6072232;23;20025;-80
2023/08/26 02:55:52;;;;;;;24.55;18.15;;;;;;;30.34;34.77;100574.16;6111436;23;20325;-81
2023/08/26 02:58:31;;;;;;;22.75;17.55;;;;;;;30.44;34.65;100601.56;6133888;23;20391;-81
2023/08/26 03:01:01;;;;;;;20.17;16.75;;;;;;;30.36;35.53;100591.13;6093347;23;20021;-81
2023/08/26 03:03:28;;;;;;;26.02;17.98;;;;;;;30.32;35.33;100606.44;6129067;23;20104;-80
2023/08/26 03:05:58;;;;;;;25.70;18.10;;;;;;;30.32;34.52;100600.13;6087984;23;20024;-82
2023/08/26 03:08:25;;;;;;;22.33;18.40;;;;;;;30.07;34.17;100573.44;6100767;23;20274;-82
2023/08/26 03:10:58;;;;;;;18.13;16.05;;;;;;;29.96;37.66;100567.13;6070123;23;20017;-81
2023/08/26 03:13:25;;;;;;;27.25;19.98;;;;;;;29.65;35.18;100516.84;6106079;23;20480;-80
2023/08/26 03:16:09;;;;;;;21.02;15.90;;;;;;;30.23;36.21;100610.75;6066197;23;20021;-79
2023/08/26 03:18:36;;;;;;;17.35;15.38;;;;;;;30.32;37.76;100620.16;6074134;23;20550;-80
2023/08/26 03:21:07;;;;;;;16.33;13.90;;;;;;;30.20;39.76;100603.09;6069227;23;20017;-82
2023/08/26 03:23:37;;;;;;;16.60;14.55;;;;;;;30.36;41.23;100632.19;6088659;23;20021;-82
2023/08/26 03:26:04;;;;;;;18.95;13.15;;;;;;;30.47;42.41;100635.00;6094914;23;20390;-82
2023/08/26 03:28:34;;;;;;;16.33;13.07;;;;;;;30.33;42.05;100615.47;6080903;23;20029;-82
2023/08/26 03:31:07;;;;;;;23.45;13.15;;;;;;;30.31;40.13;100623.94;6115183;23;20092;-80
2023/08/26 03:33:34;;;;;;;15.85;12.63;;;;;;;30.15;38.22;100653.16;6093767;23;20051;-80
2023/08/26 03:36:05;;;;;;;16.48;12.30;;;;;;;29.67;38.89;100624.13;6094355;23;20029;-79
2023/08/26 03:38:33;;;;;;;15.73;13.02;;;;;;;29.74;42.30;100655.63;6063522;23;20025;-81
2023/08/26 03:41:04;;;;;;;14.90;11.45;;;;;;;29.66;43.51;100652.53;6110514;23;20309;-79
2023/08/26 03:43:32;;;;;;;13.02;11.05;;;;;;;29.49;39.58;100645.31;6073099;23;20060;-83
2023/08/26 03:46:00;;;;;;;17.10;12.13;;;;;;;29.31;38.85;100641.03;6091736;23;20021;-84
2023/08/26 03:48:27;;;;;;;20.90;12.88;;;;;;;29.18;39.05;100644.22;6100551;23;20497;-80
2023/08/26 03:50:57;;;;;;;15.95;12.30;;;;;;;29.09;39.98;100630.19;6077104;23;20259;-81
2023/08/26 03:53:25;;;;;;;15.30;12.83;;;;;;;29.17;39.54;100654.31;6049195;23;20079;-80
2023/08/26 03:55:53;;;;;;;20.40;12.77;;;;;;;29.08;39.65;100655.03;6140657;23;20341;-81
2023/08/26 03:58:20;;;;;;;15.65;12.85;;;;;;;28.66;39.72;100606.50;6139589;23;20028;-80
2023/08/26 04:00:46;;;;;;;20.58;12.48;;;;;;;28.62;40.01;100619.00;6092711;23;20107;-81
2023/08/26 04:03:20;;;;;;;19.98;14.38;;;;;;;28.66;39.49;100626.44;6130911;23;20029;-81
2023/08/26 04:05:47;;;;;;;18.75;13.95;;;;;;;28.73;40.59;100643.44;6146877;23;20052;-79
2023/08/26 04:08:14;;;;;;;18.83;13.93;;;;;;;28.66;39.68;100625.59;6110266;23;20599;-80
2023/08/26 04:10:41;;;;;;;28.17;15.30;;;;;;;28.84;39.12;100668.97;6109227;23;20029;-79
2023/08/26 04:13:26;;;;;;;19.83;16.13;;;;;;;28.87;39.18;100659.44;6115111;23;20021;-81
2023/08/26 04:15:56;;;;;;;20.88;15.75;;;;;;;28.92;39.29;100668.50;6134209;23;20029;-81
2023/08/26 04:18:26;;;;;;;23.40;17.42;;;;;;;28.76;39.65;100623.81;6104823;23;20930;-80
2023/08/26 04:20:53;;;;;;;19.97;14.17;;;;;;;29.11;41.69;100666.28;6122387;23;20100;-79
2023/08/26 04:23:20;;;;;;;19.08;15.75;;;;;;;29.12;40.85;100662.47;6111919;23;20021;-79
2023/08/26 04:25:50;;;;;;;21.13;15.52;;;;;;;29.28;41.51;100665.34;6080073;23;20741;-80
2023/08/26 04:28:20;;;;;;;19.07;15.83;;;;;;;29.24;41.80;100662.31;6106432;23;20352;-80
2023/08/26 04:30:47;;;;;;;27.38;16.70;;;;;;;29.26;39.47;100660.13;6113667;23;20461;-78
2023/08/26 04:33:14;;;;;;;23.83;17.20;;;;;;;29.31;39.39;100662.09;6124535;23;20031;-78
2023/08/26 04:35:43;;;;;;;16.92;13.80;;;;;;;29.43;41.69;100673.69;6098891;23;20349;-80
2023/08/26 04:38:10;;;;;;;21.83;16.63;;;;;;;29.07;39.43;100621.41;6102250;23;20481;-79
2023/08/26 04:40:37;;;;;;;25.20;17.27;;;;;;;29.43;38.46;100673.69;6089291;23;20075;-80
2023/08/26 04:43:04;;;;;;;22.25;15.43;;;;;;;29.45;41.90;100677.00;6118599;23;20056;-80
2023/08/26 04:45:31;;;;;;;30.30;16.35;;;;;;;29.31;38.79;100659.38;6100648;23;20490;-78
2023/08/26 04:47:58;;;;;;;25.50;16.92;;;;;;;29.33;38.22;100660.75;6075688;23;20087;-80
2023/08/26 04:50:29;;;;;;;19.25;16.13;;;;;;;29.47;37.66;100691.22;6048067;23;20043;-80
2023/08/26 04:52:57;;;;;;;;;;;;;;;29.42;39.31;100688.47;6058028;23;20023;-80
2023/08/26 04:55:27;;;;;;;21.70;15.63;;;;;;;29.50;42.98;100679.75;6144411;23;20251;-79
2023/08/26 04:57:55;;;;;;;20.13;16.20;;;;;;;29.56;41.01;100694.28;6139800;23;20332;-78
2023/08/26 05:00:23;;;;;;;19.20;15.02;;;;;;;29.51;39.19;100692.34;6128940;23;20048;-82
2023/08/26 05:02:50;;;;;;;18.17;15.50;;;;;;;29.13;39.61;100635.97;6141799;23;20024;-82
2023/08/26 05:05:17;;;;;;;18.75;14.13;;;;;;;29.06;42.20;100619.78;6122029;23;20145;-80
2023/08/26 05:07:43;;;;;;;19.25;16.92;;;;;;;29.39;39.94;100656.13;6085821;23;20489;-79
2023/08/26 05:10:10;;;;;;;21.55;16.70;;;;;;;29.69;42.10;100695.81;6089344;23;20067;-79
2023/08/26 05:12:38;;;;;;;23.52;16.42;;;;;;;29.79;43.42;100693.16;6096614;23;20074;-82
2023/08/26 05:15:05;;;;;;;18.30;14.35;;;;;;;29.79;44.82;100682.22;6111546;23;20013;-79
2023/08/26 05:17:32;;;;;;;27.10;17.10;;;;;;;29.72;40.13;100682.44;6105265;23;20444;-81
2023/08/26 05:20:02;;;;;;;17.80;14.52;;;;;;;29.43;42.53;100638.13;6118426;23;20021;-79
2023/08/26 05:22:29;;;;;;;19.45;14.82;;;;;;;29.78;41.46;100707.91;6116137;23;20075;-80
2023/08/26 05:24:56;;;;;;;25.00;15.75;;;;;;;29.70;39.11;100697.47;6089296;23;20216;-80
2023/08/26 05:27:23;;;;;;;22.42;17.40;;;;;;;29.54;38.80;100686.38;6095016;23;20907;-82
2023/08/26 05:29:57;;;;;;;23.63;16.90;;;;;;;29.56;39.54;100700.59;6080349;23;20021;-81
2023/08/26 05:32:28;;;;;;;20.70;16.52;;;;;;;29.32;38.92;100661.00;6076539;23;20410;-82
2023/08/26 05:34:54;;;;;;;26.27;17.35;;;;;;;29.51;39.36;100706.00;6103051;23;20445;-80
2023/08/26 05:37:26;;;;;;;23.23;16.70;;;;;;;29.14;39.37;100652.09;6112789;23;20109;-80
2023/08/26 05:39:52;;;;;;;;;;;;;;;29.35;39.39;100696.88;6140271;23;20104;-80
2023/08/26 05:42:23;;;;;;;25.90;16.77;;;;;;;29.28;39.34;100695.44;6135834;23;19916;-79
2023/08/26 05:44:53;;;;;;;21.45;16.67;;;;;;;28.87;39.89;100626.66;6107519;23;20060;-80
2023/08/26 05:47:20;;;;;;;24.08;16.67;;;;;;;29.31;40.33;100697.63;6099429;23;20537;-80
2023/08/26 05:49:52;;;;;;;21.70;16.50;;;;;;;29.03;42.40;100647.59;6033349;23;20378;-80
2023/08/26 05:52:28;;;;;;;26.98;17.17;;;;;;;29.51;39.26;100688.78;6101829;23;20040;-82
2023/08/26 05:54:58;;;;;;;24.35;17.65;;;;;;;29.56;39.83;100710.72;6108831;23;20391;-81
2023/08/26 05:57:25;;;;;;;22.17;17.27;;;;;;;29.60;41.00;100707.19;6114563;23;20060;-80
2023/08/26 05:59:52;;;;;;;28.60;16.67;;;;;;;29.65;40.36;100702.88;6088903;23;20380;-80
2023/08/26 06:02:19;;;;;;;23.33;17.55;;;;;;;29.68;40.85;100707.84;6129849;23;20054;-79
2023/08/26 06:04:45;;;;;;;19.02;15.73;;;;;;;29.67;42.68;100700.72;6161034;23;20096;-81
2023/08/26 06:07:18;;;;;;;25.42;18.00;;;;;;;29.79;40.12;100706.84;6112454;23;20527;-81
2023/08/26 06:09:45;;;;;;;23.38;17.85;;;;;;;29.76;40.63;100691.78;6115837;23;20436;-80
2023/08/26 06:12:12;;;;;;;24.55;16.90;;;;;;;29.89;39.89;100698.69;6158296;23;20246;-79
2023/08/26 06:14:39;;;;;;;22.90;18.35;;;;;;;29.73;39.46;100675.03;6173655;23;20104;-80
2023/08/26 06:17:06;;;;;;;24.27;19.23;;;;;;;29.89;39.14;100697.88;6151536;23;20017;-78
2023/08/26 06:19:36;;;;;;;24.30;18.05;;;;;;;29.82;39.65;100687.97;6146294;23;20082;-80
2023/08/26 06:22:03;;;;;;;23.30;19.30;;;;;;;29.82;39.76;100681.69;6154734;23;20332;-79
2023/08/26 06:24:32;;;;;;;24.92;17.88;;;;;;;29.98;39.59;100699.03;6139266;23;20052;-80
2023/08/26 06:27:01;;;;;;;19.80;15.85;;;;;;;29.97;43.21;100689.97;6186832;23;20017;-78
2023/08/26 06:29:31;;;;;;;32.08;17.33;;;;;;;30.11;40.58;100695.84;6117176;23;20040;-80
2023/08/26 06:32:00;;;;;;;22.75;16.98;;;;;;;30.16;40.37;100692.31;6153360;23;20024;-79
2023/08/26 06:34:27;;;;;;;23.92;17.25;;;;;;;30.21;41.51;100704.09;6124589;23;20044;-79
2023/08/26 06:36:53;;;;;;;20.95;15.40;;;;;;;30.33;44.92;100698.44;6132830;23;20020;-80
2023/08/26 06:39:26;;;;;;;25.60;16.25;;;;;;;30.21;43.17;100684.13;6116896;23;20371;-81
2023/08/26 06:41:53;;;;;;;30.55;17.40;;;;;;;30.33;41.74;100703.94;6139206;23;20039;-80
2023/08/26 06:44:21;;;;;;;27.58;17.60;;;;;;;30.32;41.87;100695.97;6129430;23;20021;-79
2023/08/26 06:46:48;;;;;;;30.75;18.35;;;;;;;30.36;43.24;100703.38;6153527;23;20027;-81
2023/08/26 06:49:15;;;;;;;27.63;16.83;;;;;;;30.36;42.09;100703.38;6148653;23;20430;-79
2023/08/26 06:51:42;;;;;;;22.75;16.08;;;;;;;30.33;42.63;100682.03;6126559;23;20520;-79
2023/08/26 06:54:08;;;;;;;19.75;15.15;;;;;;;30.51;44.98;100702.63;6136069;23;20016;-81
2023/08/26 06:56:35;;;;;;;23.92;17.13;;;;;;;30.27;42.34;100658.47;6152344;23;20494;-79
2023/08/26 06:59:04;;;;;;;23.95;17.05;;;;;;;30.57;41.84;100703.50;6141582;23;20434;-81
2023/08/26 07:01:36;;;;;;;24.25;18.05;;;;;;;30.57;41.84;100698.84;6089502;23;20016;-79
2023/08/26 07:04:06;;;;;;;31.92;17.98;;;;;;;30.61;40.77;100699.13;6107946;23;20020;-79
2023/08/26 07:06:35;;;;;;;;;;;;;;;30.62;39.55;100707.06;6083447;23;20876;-78
2023/08/26 07:09:04;;;;;;;21.17;15.45;;;;;;;30.74;42.45;100708.78;6091006;23;20317;-77
2023/08/26 07:11:32;;;;;;;29.25;18.98;;;;;;;30.36;41.02;100647.81;6111607;23;20450;-81
2023/08/26 07:14:01;;;;;;;25.40;16.40;;;;;;;30.74;42.99;100698.63;6115631;23;20506;-80
2023/08/26 07:16:29;;;;;;;23.27;16.77;;;;;;;30.75;43.24;100711.22;6088742;23;20099;-80
2023/08/26 07:18:56;;;;;;;24.20;17.40;;;;;;;30.85;41.59;100708.56;6126272;23;20075;-80
2023/08/26 07:21:23;;;;;;;20.45;16.10;;;;;;;30.96;44.42;100716.81;6097299;23;20230;-79
2023/08/26 07:23:50;;;;;;;23.95;17.52;;;;;;;30.76;42.79;100685.50;6101991;23;20025;-81
2023/08/26 07:26:18;;;;;;;24.55;15.82;;;;;;;30.86;44.09;100695.69;6107402;23;20028;-77
2023/08/26 07:28:46;;;;;;;24.17;18.25;;;;;;;30.98;41.09;100709.16;6141848;23;20276;-78
2023/08/26 07:31:13;;;;;;;21.05;17.67;;;;;;;30.97;41.90;100702.84;6102951;23;20024;-78
2023/08/26 07:33:40;;;;;;;31.60;18.38;;;;;;;30.84;40.63;100681.44;6104836;23;20028;-80
2023/08/26 07:36:12;;;;;;;20.90;15.60;;;;;;;30.77;43.09;100658.91;6099855;23;20080;-79
2023/08/26 07:38:39;;;;;;;30.02;18.65;;;;;;;31.17;42.41;100721.28;6105759;23;20403;-79
2023/08/26 07:41:06;;;;;;;22.23;17.80;;;;;;;31.17;42.52;100718.53;6049710;23;20796;-79
2023/08/26 07:43:37;;;;;;;22.10;16.33;;;;;;;31.11;41.22;100692.19;6097550;23;20021;-81
2023/08/26 07:46:04;;;;;;;26.58;16.10;;;;;;;31.25;37.86;100693.31;6105876;23;20044;-80
2023/08/26 07:48:38;;;;;;;22.90;16.50;;;;;;;31.42;37.57;100700.50;6101078;23;20186;-80
2023/08/26 07:51:09;;;;;;;21.33;17.52;;;;;;;31.41;37.23;100696.94;6123173;23;20044;-80
2023/08/26 07:53:36;;;;;;;22.52;16.13;;;;;;;31.38;39.63;100688.38;6085354;23;20076;-80
2023/08/26 07:56:04;;;;;;;18.98;15.93;;;;;;;31.45;39.07;100697.19;6123533;23;20025;-81
2023/08/26 07:58:31;;;;;;;22.48;16.50;;;;;;;31.50;38.54;100694.44;6137349;23;20013;-80
2023/08/26 08:01:01;;;;;;;22.17;17.02;;;;;;;31.43;37.51;100685.66;6095835;23;20040;-79
2023/08/26 08:03:28;;;;;;;24.00;16.50;;;;;;;31.53;38.11;100682.91;6103168;23;20035;-78
2023/08/26 08:05:55;;;;;;;19.38;16.23;;;;;;;31.41;39.10;100663.16;6086919;23;20021;-77
2023/08/26 08:08:22;;;;;;;26.42;15.57;;;;;;;31.66;37.36;100698.84;6110539;23;20485;-78
2023/08/26 08:10:50;;;;;;;21.27;17.52;;;;;;;31.73;36.62;100704.06;6096230;23;20024;-79
2023/08/26 08:13:20;;;;;;;24.55;17.35;;;;;;;31.64;37.47;100689.25;6116822;23;20044;-78
2023/08/26 08:15:49;;;;;;;21.63;16.98;;;;;;;31.71;38.96;100692.53;6113459;23;20368;-78
2023/08/26 08:18:16;;;;;;;21.48;16.27;;;;;;;31.70;40.18;100705.44;6116500;23;20014;-79
2023/08/26 08:20:43;;;;;;;23.23;19.45;;;;;;;31.71;37.66;100698.84;6101105;23;20496;-79
2023/08/26 08:23:10;;;;;;;24.38;18.33;;;;;;;30.73;38.70;100565.47;6136864;23;20025;-79
2023/08/26 08:25:37;;;;;;;26.05;18.75;;;;;;;31.65;38.45;100696.38;6123488;23;20453;-79
2023/08/26 08:28:04;;;;;;;25.95;19.60;;;;;;;31.71;38.79;100704.31;6103762;23;20025;-79
2023/08/26 08:30:32;;;;;;;29.05;17.83;;;;;;;30.94;39.45;100598.41;6098073;23;20025;-80
2023/08/26 08:32:59;;;;;;;29.15;19.67;;;;;;;31.03;39.74;100611.31;6123818;23;20044;-79
2023/08/26 08:35:26;;;;;;;23.25;18.48;;;;;;;31.51;40.06;100698.84;6125223;23;20021;-78
2023/08/26 08:37:53;;;;;;;26.00;19.25;;;;;;;31.33;40.27;100677.41;6074616;23;20430;-78
2023/08/26 08:40:20;;;;;;;23.42;18.55;;;;;;;31.55;40.15;100697.19;6101909;23;20903;-81
2023/08/26 08:42:47;;;;;;;31.83;17.98;;;;;;;31.42;40.97;100676.63;6137425;23;20024;-79
2023/08/26 08:45:14;;;;;;;35.60;19.95;;;;;;;31.56;39.25;100687.88;6095629;23;20024;-79
2023/08/26 08:47:42;;;;;;;26.48;18.42;;;;;;;31.56;40.88;100693.38;6103899;23;20103;-79
2023/08/26 08:50:09;;;;;;;28.42;19.17;;;;;;;31.56;39.87;100685.13;6139589;23;20465;-79
2023/08/26 08:52:36;;;;;;;26.05;17.83;;;;;;;31.47;41.87;100665.66;6084019;23;20345;-79
2023/08/26 08:55:05;;;;;;;31.67;19.23;;;;;;;31.21;40.51;100620.91;6063922;23;20163;-80
2023/08/26 08:57:35;;;;;;;19.15;16.45;;;;;;;31.62;40.67;100666.75;6128801;23;20060;-80
2023/08/26 09:00:06;;;;;;;25.83;19.23;;;;;;;31.56;40.45;100660.44;6147316;23;20445;-79
2023/08/26 09:02:37;;;;;;;21.42;18.20;;;;;;;31.54;41.08;100656.34;6103971;23;20332;-78
2023/08/26 09:05:05;;;;;;;26.45;18.95;;;;;;;31.67;39.74;100675.78;6124099;23;20425;-78
2023/08/26 09:07:38;;;;;;;23.92;18.67;;;;;;;31.75;40.67;100663.44;6096227;23;20021;-81
2023/08/26 09:10:08;;;;;;;;;;;;;;;31.60;38.26;100622.28;6089337;23;20380;-81
2023/08/26 09:12:39;;;;;;;27.23;19.75;;;;;;;31.96;38.58;100671.66;6121765;23;19916;-80
2023/08/26 09:15:06;;;;;;;29.48;18.15;;;;;;;31.83;38.43;100632.69;6114364;23;20025;-78
2023/08/26 09:17:33;;;;;;;25.65;17.92;;;;;;;32.02;40.00;100671.38;6109679;23;20099;-79
2023/08/26 09:20:05;;;;;;;31.98;19.17;;;;;;;32.22;38.07;100661.44;6117182;23;20029;-78
2023/08/26 09:22:33;;;;;;;27.98;17.67;;;;;;;32.25;39.48;100663.63;6126595;23;20044;-80
2023/08/26 09:25:04;;;;;;;27.15;18.75;;;;;;;32.26;38.69;100651.53;6114506;23;20075;-79
2023/08/26 09:27:41;;;;;;;24.13;18.00;;;;;;;32.26;41.19;100651.53;6109606;23;20025;-79
2023/08/26 09:30:08;;;;;;;26.65;18.75;;;;;;;32.43;38.61;100663.03;6102541;23;20458;-79
2023/08/26 09:32:36;;;;;;;21.65;18.63;;;;;;;32.48;38.91;100652.00;6104338;23;20404;-81
2023/08/26 09:35:18;;;;;;;22.63;17.33;;;;;;;32.68;37.50;100647.53;6134463;23;20750;-80
2023/08/26 09:38:08;;;;;;;24.95;17.25;;;;;;;32.66;38.42;100644.25;6115633;23;20029;-79
2023/08/26 09:40:37;;;;;;;19.35;17.20;;;;;;;32.75;37.94;100645.31;6110470;23;20024;-79
2023/08/26 09:43:04;;;;;;;20.67;17.33;;;;;;;32.59;39.11;100605.28;6151169;23;20064;-81
2023/08/26 09:45:36;;;;;;;22.77;16.38;;;;;;;33.16;38.98;100656.88;6089236;23;20059;-82
2023/08/26 09:48:05;;;;;;;20.23;16.63;;;;;;;33.23;39.08;100655.72;6079726;23;20210;-79
2023/08/26 09:50:33;;;;;;;20.77;17.73;;;;;;;33.27;37.96;100660.38;6090583;23;20414;-81
2023/08/26 09:52:59;;;;;;;24.85;17.95;;;;;;;33.24;37.86;100654.63;6130829;23;20021;-80
2023/08/26 09:55:27;;;;;;;20.52;17.10;;;;;;;33.08;38.29;100620.91;6143705;23;20036;-80
2023/08/26 09:57:54;;;;;;;19.98;17.05;;;;;;;33.11;38.76;100637.69;6110355;23;20450;-80
2023/08/26 10:00:23;;;;;;;24.13;18.13;;;;;;;33.38;38.82;100653.69;6126157;23;20021;-81
2023/08/26 10:02:59;;;;;;;23.65;18.08;;;;;;;33.25;38.23;100624.06;6124899;23;20044;-82
2023/08/26 10:05:28;;;;;;;20.52;17.30;;;;;;;33.44;38.22;100639.88;6121390;23;20024;-81
2023/08/26 10:07:57;;;;;;;21.65;18.77;;;;;;;33.71;35.61;100648.44;6145837;23;20622;-82
2023/08/26 10:10:24;;;;;;;22.17;17.95;;;;;;;34.00;37.15;100662.19;6110795;23;20346;-80
2023/08/26 10:12:55;;;;;;;19.63;15.95;;;;;;;33.67;39.20;100641.91;6114294;23;20017;-80
2023/08/26 10:15:26;;;;;;;19.38;16.23;;;;;;;33.54;39.10;100645.28;6117579;23;20346;-80
2023/08/26 10:18:04;;;;;;;22.38;18.90;;;;;;;33.50;36.75;100627.72;6124835;23;20025;-79
2023/08/26 10:20:31;;;;;;;26.00;18.23;;;;;;;33.88;37.14;100655.47;6136765;23;20369;-78
2023/08/26 10:22:59;;;;;;;24.08;18.75;;;;;;;33.97;36.86;100650.97;6133282;23;20013;-79
2023/08/26 10:25:29;;;;;;;17.20;15.40;;;;;;;33.92;39.21;100634.50;6150112;23;20104;-80
2023/08/26 10:27:58;;;;;;;21.30;16.83;;;;;;;33.73;39.23;100613.22;6109256;23;20179;-81
2023/08/26 10:30:26;;;;;;;20.80;17.15;;;;;;;33.92;38.29;100621.53;6118557;23;20283;-80
2023/08/26 10:33:02;;;;;;;19.38;16.83;;;;;;;34.00;38.97;100645.66;6109150;23;20028;-83
2023/08/26 10:35:32;;;;;;;25.63;19.77;;;;;;;33.80;37.31;100624.69;6123741;23;20021;-81
2023/08/26 10:38:13;;;;;;;24.00;20.53;;;;;;;34.18;34.16;100619.34;6128102;23;20021;-81
2023/08/26 10:40:42;;;;;;;29.30;21.13;;;;;;;34.57;34.06;100637.59;6105901;23;20095;-81
2023/08/26 10:43:12;;;;;;;22.73;19.42;;;;;;;34.65;35.36;100631.41;6141577;23;20076;-80
2023/08/26 10:45:47;;;;;;;23.02;18.48;;;;;;;34.46;36.36;100583.72;6092537;23;20450;-80
2023/08/26 10:48:15;;;;;;;22.05;19.02;;;;;;;34.70;35.14;100635.22;6114202;23;20063;-81
2023/08/26 10:50:46;;;;;;;22.73;16.08;;;;;;;34.68;37.47;100618.97;6131871;23;20021;-80
2023/08/26 10:53:25;;;;;;;23.98;18.77;;;;;;;34.55;37.36;100603.97;6147759;23;20027;-80
2023/08/26 10:55:53;;;;;;;25.65;16.45;;;;;;;34.80;37.44;100630.38;6156440;23;20482;-80
2023/08/26 10:58:21;;;;;;;22.15;19.00;;;;;;;34.65;36.52;100592.81;6148712;23;20515;-80
2023/08/26 11:00:50;;;;;;;18.17;16.10;;;;;;;34.75;37.92;100621.38;6115954;23;20072;-79
2023/08/26 11:03:18;;;;;;;20.98;17.98;;;;;;;34.61;35.88;100624.84;6115820;23;20087;-79
2023/08/26 11:05:47;;;;;;;25.40;19.42;;;;;;;34.83;34.84;100585.69;6127657;23;20028;-80
2023/08/26 11:08:14;;;;;;;19.92;17.00;;;;;;;35.05;37.25;100604.38;6121295;23;20056;-79
2023/08/26 11:10:41;;;;;;;23.33;18.90;;;;;;;35.10;36.67;100615.34;6132267;23;20067;-80
2023/08/26 11:13:09;;;;;;;24.90;19.40;;;;;;;34.34;34.68;100489.66;6112571;23;20329;-79
2023/08/26 11:15:37;;;;;;;20.23;17.10;;;;;;;35.34;35.35;100611.63;6123110;23;20399;-80
2023/08/26 11:18:05;;;;;;;20.05;17.77;;;;;;;35.41;34.86;100594.69;6106945;23;20083;-81
2023/08/26 11:20:33;;;;;;;20.75;18.40;;;;;;;35.56;34.38;100590.81;6095722;23;20020;-80